Time;durP1;ratioP1;P1;durP2;ratioP2;P2;SDS_P1;SDS_P2;PMS_P1;PMS_P2;Temp;Humidity;BMP_temperature;BMP_pressure;BME280_temperature;BME280_humidity;BME280_pressure;Samples;Min_cycle;Max_cycle;Signal;HPM_P1;HPM_P2
2023/05/12 00:01:52;;;;;;;5.40;1.58;;;9.10;99.90;;;8.33;100.00;101475.56;4119443;28;20031;-73
2023/05/12 00:03:52;;;;;;;6.30;1.70;;;9.00;99.90;;;8.34;100.00;101482.50;4120620;28;20026;-73
2023/05/12 00:05:53;;;;;;;4.32;1.45;;;9.00;99.90;;;8.32;100.00;101471.28;4120577;28;20037;-73
2023/05/12 00:07:55;;;;;;;2.67;1.60;;;9.10;99.90;;;8.33;100.00;101472.13;4120666;28;20019;-73
2023/05/12 00:09:56;;;;;;;4.85;2.05;;;9.10;99.90;;;8.39;100.00;101476.88;4119213;28;20030;-73
2023/05/12 00:11:57;;;;;;;4.35;1.80;;;9.10;99.90;;;8.35;100.00;101464.94;4120516;28;20023;-73
2023/05/12 00:13:57;;;;;;;9.95;1.98;;;9.10;99.90;;;8.42;100.00;101474.00;4120592;28;20058;-73
2023/05/12 00:15:58;;;;;;;5.28;1.88;;;9.10;99.90;;;8.41;100.00;101477.59;4120520;28;20167;-73
2023/05/12 00:17:59;;;;;;;5.65;2.15;;;9.10;99.90;;;8.36;100.00;101461.38;4120110;28;20038;-73
2023/05/12 00:20:00;;;;;;;7.78;1.92;;;9.10;99.90;;;8.38;100.00;101467.31;4135427;28;20026;-72
2023/05/12 00:22:01;;;;;;;4.88;1.50;;;9.10;99.90;;;8.35;100.00;101454.44;4135447;28;20033;-73
2023/05/12 00:24:03;;;;;;;4.75;1.58;;;9.10;99.90;;;8.38;100.00;101469.94;4119274;28;20029;-73
2023/05/12 00:26:04;;;;;;;7.25;2.30;;;9.10;99.90;;;8.34;100.00;101458.84;4119108;28;20018;-73
2023/05/12 00:28:05;;;;;;;7.68;1.45;;;9.10;99.90;;;8.30;100.00;101457.41;4135406;28;20026;-73
2023/05/12 00:30:07;;;;;;;4.40;1.67;;;9.10;99.90;;;8.33;100.00;101461.59;4119267;28;20058;-73
2023/05/12 00:32:07;;;;;;;8.02;2.47;;;9.10;99.90;;;8.34;100.00;101465.88;4135161;28;20074;-73
2023/05/12 00:34:08;;;;;;;6.35;1.70;;;9.10;99.90;;;8.30;100.00;101456.59;4119554;28;20046;-73
2023/05/12 00:36:09;;;;;;;6.95;1.95;;;9.10;99.90;;;8.30;100.00;101461.84;4118825;28;20105;-72
2023/05/12 00:38:12;;;;;;;8.02;2.20;;;9.10;99.90;;;8.30;100.00;101453.97;4120316;28;20022;-73
2023/05/12 00:40:13;;;;;;;6.55;2.58;;;9.10;99.90;;;8.29;100.00;101453.13;4135085;28;20097;-73
2023/05/12 00:42:14;;;;;;;7.10;1.98;;;9.10;99.90;;;8.32;100.00;101452.03;4134964;28;20513;-73
2023/05/12 00:44:14;;;;;;;4.22;1.67;;;9.10;99.90;;;8.32;100.00;101457.31;4102942;28;20102;-73
2023/05/12 00:46:16;;;;;;;4.00;2.17;;;9.10;99.90;;;8.31;100.00;101450.38;4120178;28;20414;-73
2023/05/12 00:48:18;;;;;;;5.55;1.70;;;9.10;99.90;;;8.31;100.00;101453.00;4119902;28;20085;-73
2023/05/12 00:50:20;;;;;;;6.50;1.90;;;9.10;99.90;;;8.35;100.00;101449.16;4134931;28;20030;-73
2023/05/12 00:52:21;;;;;;;4.05;1.70;;;9.10;99.90;;;8.41;100.00;101453.09;4134778;28;20038;-73
2023/05/12 00:54:22;;;;;;;12.13;2.63;;;9.20;99.90;;;8.46;100.00;101450.91;4120282;28;20442;-73
2023/05/12 00:56:24;;;;;;;6.03;2.28;;;9.20;99.90;;;8.50;100.00;101449.72;4134943;28;20034;-73
2023/05/12 00:58:25;;;;;;;10.13;1.50;;;9.30;99.90;;;8.55;100.00;101444.91;4118800;28;20411;-73
2023/05/12 01:00:26;;;;;;;6.30;1.80;;;9.30;99.90;;;8.64;100.00;101454.66;4135131;28;20038;-73
2023/05/12 01:02:27;;;;;;;4.72;1.85;;;9.40;99.90;;;8.71;100.00;101459.31;4120046;28;20038;-73
2023/05/12 01:04:28;;;;;;;3.83;1.60;;;9.40;99.90;;;8.73;100.00;101444.22;4134182;28;20112;-73
2023/05/12 01:06:45;;;;;;;6.38;1.52;;;9.50;99.90;;;8.75;100.00;101437.03;4102468;29;20035;-73
2023/05/12 01:08:47;;;;;;;3.00;1.40;;;9.60;99.90;;;8.87;100.00;101443.91;4109559;28;20066;-73
2023/05/12 01:10:47;;;;;;;6.38;1.80;;;9.60;99.90;;;8.89;100.00;101444.63;4120121;28;20410;-73
2023/05/12 01:12:48;;;;;;;3.95;1.70;;;9.70;99.90;;;8.93;100.00;101439.94;4134771;28;20039;-73
2023/05/12 01:14:52;;;;;;;5.30;1.77;;;9.70;99.90;;;8.93;100.00;101447.81;4119792;28;20026;-72
2023/05/12 01:16:57;;;;;;;4.22;1.40;;;9.70;99.90;;;8.94;100.00;101436.34;4134845;28;20030;-73
2023/05/12 01:18:59;;;;;;;4.78;1.45;;;9.70;99.90;;;8.96;100.00;101436.22;4118708;28;20490;-73
2023/05/12 01:21:01;;;;;;;5.00;1.67;;;9.70;99.90;;;9.02;100.00;101427.81;4118803;28;20394;-72
2023/05/12 01:23:03;;;;;;;4.95;2.55;;;9.80;99.90;;;9.08;100.00;101437.84;4134512;28;20030;-73
2023/05/12 01:25:10;;;;;;;9.43;2.58;;;9.80;99.90;;;9.09;100.00;101427.16;4119903;28;20026;-73
2023/05/12 01:27:13;;;;;;;6.32;1.70;;;9.90;99.90;;;9.18;100.00;101438.69;4134770;28;20030;-73
2023/05/12 01:29:14;;;;;;;3.00;1.63;;;9.90;99.90;;;9.21;100.00;101425.28;4118575;28;20034;-73
2023/05/12 01:31:16;;;;;;;7.28;2.25;;;10.00;99.90;;;9.26;100.00;101421.28;4135085;28;20026;-73
2023/05/12 01:33:17;;;;;;;13.15;2.38;;;10.00;99.90;;;9.33;100.00;101434.78;4134227;28;20035;-73
2023/05/12 01:35:18;;;;;;;9.13;2.55;;;10.00;99.90;;;9.23;100.00;101411.03;4119913;28;20433;-73
2023/05/12 01:37:19;;;;;;;11.57;3.85;;;10.10;99.90;;;9.34;100.00;101420.66;4134392;28;20030;-73
2023/05/12 01:39:20;;;;;;;6.53;1.95;;;10.10;99.90;;;9.43;100.00;101419.88;4122105;28;20022;-73
2023/05/12 01:41:21;;;;;;;5.20;2.15;;;10.10;99.90;;;9.44;100.00;101413.59;4120030;28;20042;-73
2023/05/12 01:43:22;;;;;;;8.25;2.10;;;10.20;99.90;;;9.49;100.00;101415.84;4119767;28;20058;-73
2023/05/12 01:45:22;;;;;;;4.28;2.15;;;10.20;99.90;;;9.49;100.00;101414.06;4119703;28;20059;-73
2023/05/12 01:47:23;;;;;;;8.23;2.70;;;10.30;99.90;;;9.51;100.00;101414.75;4134354;28;20522;-73
2023/05/12 01:49:24;;;;;;;9.40;2.42;;;10.30;99.90;;;9.57;100.00;101418.66;4108415;28;20023;-73
2023/05/12 01:51:25;;;;;;;6.43;2.17;;;10.30;99.90;;;9.54;100.00;101417.13;4118587;28;20030;-73
2023/05/12 01:53:26;;;;;;;9.40;2.88;;;10.30;99.90;;;9.57;100.00;101422.13;4119525;28;20038;-73
2023/05/12 01:55:27;;;;;;;7.75;2.63;;;10.30;99.90;;;9.55;100.00;101408.28;4118191;28;20530;-73
2023/05/12 01:57:28;;;;;;;9.15;2.53;;;10.40;99.90;;;9.61;100.00;101420.91;4119474;28;20030;-73
2023/05/12 01:59:29;;;;;;;6.68;2.55;;;10.40;99.90;;;9.63;100.00;101418.13;4119640;28;20023;-72
2023/05/12 02:01:31;;;;;;;5.53;1.95;;;10.40;99.90;;;9.61;100.00;101405.09;4134713;28;20093;-73
2023/05/12 02:03:31;;;;;;;8.48;2.88;;;10.40;99.90;;;9.60;100.00;101403.44;4118036;28;20022;-73
2023/05/12 02:05:32;;;;;;;5.50;1.88;;;10.40;99.90;;;9.64;100.00;101410.09;4134494;28;20069;-73
2023/05/12 02:07:33;;;;;;;14.27;2.60;;;10.40;99.90;;;9.67;100.00;101409.84;4119505;28;20023;-73
2023/05/12 02:09:34;;;;;;;8.38;2.42;;;10.40;99.90;;;9.62;100.00;101401.47;4119505;28;20065;-73
2023/05/12 02:11:36;;;;;;;8.27;2.35;;;10.40;99.90;;;9.67;100.00;101412.47;4134466;28;20037;-72
2023/05/12 02:13:37;;;;;;;10.82;2.72;;;10.40;99.90;;;9.63;100.00;101402.31;4118221;28;20035;-72
2023/05/12 02:15:38;;;;;;;9.32;2.50;;;10.50;99.90;;;9.67;100.00;101403.72;4118225;28;20560;-73
2023/05/12 02:17:38;;;;;;;11.18;2.20;;;10.50;99.90;;;9.68;100.00;101397.47;4103990;28;20039;-72
2023/05/12 02:19:40;;;;;;;6.65;1.95;;;10.40;99.90;;;9.74;100.00;101410.94;4136787;28;20019;-72
2023/05/12 02:21:41;;;;;;;8.15;2.13;;;10.50;99.90;;;9.78;100.00;101412.34;4122454;28;20019;-73
2023/05/12 02:23:41;;;;;;;7.90;3.00;;;10.50;99.90;;;9.78;100.00;101409.72;4122350;28;20082;-73
2023/05/12 02:25:42;;;;;;;5.78;2.30;;;10.50;99.90;;;9.77;100.00;101404.56;4122172;28;20509;-73
2023/05/12 02:27:43;;;;;;;10.68;2.58;;;10.50;99.90;;;9.83;100.00;101411.94;4136933;28;20108;-73
2023/05/12 02:29:44;;;;;;;11.27;2.17;;;10.60;99.90;;;9.86;100.00;101414.31;4122236;28;20023;-73
2023/05/12 02:31:45;;;;;;;10.18;3.50;;;10.60;99.90;;;9.86;100.00;101414.31;4121685;28;20494;-73
2023/05/12 02:33:47;;;;;;;7.05;2.20;;;10.60;99.90;;;9.88;100.00;101417.66;4120702;28;20039;-73
2023/05/12 02:35:48;;;;;;;6.55;2.28;;;10.60;99.90;;;9.89;100.00;101422.78;4120802;28;20054;-72
2023/05/12 02:37:49;;;;;;;4.72;2.20;;;10.60;99.90;;;9.90;100.00;101416.56;4122169;28;20038;-73
2023/05/12 02:39:49;;;;;;;8.02;2.75;;;10.60;99.90;;;9.93;100.00;101426.81;4136924;28;20033;-73
2023/05/12 02:41:50;;;;;;;5.72;1.83;;;10.70;99.90;;;9.91;100.00;101414.75;4121884;28;20558;-73
2023/05/12 02:43:52;;;;;;;7.85;2.35;;;10.60;99.90;;;9.92;100.00;101422.50;4121708;28;20022;-73
2023/05/12 02:45:53;;;;;;;6.97;2.10;;;10.60;99.90;;;9.85;100.00;101410.88;4122321;28;20018;-73
2023/05/12 02:47:54;;;;;;;6.10;2.95;;;10.60;99.90;;;9.86;100.00;101416.94;4136347;28;20121;-73
2023/05/12 02:49:55;;;;;;;5.18;1.90;;;10.60;99.90;;;9.84;100.00;101422.38;4120708;28;20114;-73
2023/05/12 02:51:56;;;;;;;4.93;2.20;;;10.60;99.90;;;9.78;100.00;101408.88;4121765;28;20027;-73
2023/05/12 02:53:57;;;;;;;11.77;2.88;;;10.50;99.90;;;9.75;100.00;101412.63;4136825;28;20402;-73
2023/05/12 02:55:58;;;;;;;7.50;2.08;;;10.50;99.90;;;9.74;100.00;101415.38;4120648;28;20035;-72
2023/05/12 02:57:59;;;;;;;6.75;2.10;;;10.50;99.90;;;9.71;100.00;101421.75;4121658;28;20029;-73
2023/05/12 03:00:03;;;;;;;5.63;2.08;;;10.50;99.90;;;9.65;100.00;101414.38;4121594;28;20058;-72
2023/05/12 03:02:04;;;;;;;5.95;1.90;;;10.40;99.90;;;9.68;100.00;101422.03;4136423;28;20027;-73
2023/05/12 03:04:05;;;;;;;6.25;2.10;;;10.40;99.90;;;9.65;100.00;101414.38;4121460;28;20027;-73
2023/05/12 03:06:06;;;;;;;7.95;2.13;;;10.40;99.90;;;9.64;100.00;101422.44;4136078;28;20387;-73
2023/05/12 03:08:07;;;;;;;5.47;2.15;;;10.40;99.90;;;9.64;100.00;101422.44;4104086;28;20037;-73
2023/05/12 03:10:09;;;;;;;6.55;2.67;;;10.40;99.90;;;9.57;100.00;101416.84;4121630;28;20030;-73
2023/05/12 03:12:10;;;;;;;9.10;2.60;;;10.40;99.90;;;9.60;100.00;101421.88;4121489;28;20023;-73
2023/05/12 03:14:11;;;;;;;9.02;2.75;;;10.30;99.90;;;9.58;100.00;101415.06;4121449;28;20454;-73
2023/05/12 03:16:11;;;;;;;8.50;3.63;;;10.30;99.90;;;9.57;100.00;101419.50;4121406;28;20027;-73
2023/05/12 03:18:12;;;;;;;5.03;2.00;;;10.30;99.90;;;9.58;100.00;101421.19;4119862;28;20038;-72
2023/05/12 03:20:13;;;;;;;10.35;1.83;;;10.40;99.90;;;9.57;100.00;101418.66;4121454;28;20033;-73
2023/05/12 03:22:14;;;;;;;10.93;2.45;;;10.30;99.90;;;9.55;100.00;101416.16;4136319;28;20034;-73
2023/05/12 03:24:15;;;;;;;8.35;2.40;;;10.30;99.90;;;9.54;100.00;101409.22;4120168;28;20059;-72
2023/05/12 03:26:16;;;;;;;6.43;2.38;;;10.30;99.90;;;9.58;100.00;101415.91;4121142;28;20042;-73
2023/05/12 03:28:17;;;;;;;12.13;3.13;;;10.30;99.90;;;9.57;100.00;101416.03;4104042;28;20019;-73
2023/05/12 03:30:18;;;;;;;8.60;2.33;;;10.30;99.90;;;9.55;100.00;101416.16;4136077;28;20037;-73
2023/05/12 03:32:18;;;;;;;6.20;2.65;;;10.30;99.90;;;9.53;100.00;101412.81;4121126;28;20030;-73
2023/05/12 03:34:19;;;;;;;6.70;2.20;;;10.30;99.90;;;9.49;100.00;101400.91;4135745;28;20030;-72
2023/05/12 03:36:20;;;;;;;6.90;2.72;;;10.30;99.90;;;9.55;100.00;101416.16;4120094;28;20407;-73
2023/05/12 03:38:21;;;;;;;5.82;2.20;;;10.30;99.90;;;9.52;100.00;101411.16;4121109;28;20026;-73
2023/05/12 03:40:22;;;;;;;8.90;2.30;;;10.30;99.90;;;9.50;100.00;101402.53;4135977;28;20051;-73
2023/05/12 03:42:23;;;;;;;5.78;2.38;;;10.30;99.90;;;9.57;100.00;101402.84;4119918;28;20085;-73
2023/05/12 03:44:24;;;;;;;11.32;3.08;;;10.30;99.90;;;9.56;100.00;101417.00;4119840;28;20055;-72
2023/05/12 03:46:25;;;;;;;7.43;2.67;;;10.30;99.90;;;9.55;100.00;101434.59;4120943;28;20450;-72
2023/05/12 03:48:26;;;;;;;5.95;2.80;;;10.30;99.90;;;9.52;100.00;101410.31;4119503;28;20458;-73
2023/05/12 03:50:27;;;;;;;12.02;3.33;;;10.30;99.90;;;9.47;100.00;101405.44;4121023;28;20026;-73
2023/05/12 03:52:28;;;;;;;5.63;2.33;;;10.30;99.90;;;9.47;100.00;101413.34;4135799;28;20137;-72
2023/05/12 03:54:29;;;;;;;11.10;2.70;;;10.20;99.90;;;9.48;100.00;101414.19;4120915;28;20031;-73
2023/05/12 03:56:30;;;;;;;11.52;3.55;;;10.20;99.90;;;9.43;100.00;101407.53;4120930;28;20019;-72
2023/05/12 03:58:31;;;;;;;8.55;3.60;;;10.30;99.90;;;9.43;100.00;101409.31;4119501;28;20063;-73
2023/05/12 04:00:32;;;;;;;10.85;3.88;;;10.20;99.90;;;9.43;100.00;101412.81;4135544;28;20633;-72
2023/05/12 04:02:33;;;;;;;15.25;3.47;;;10.20;99.90;;;9.41;100.00;101405.97;4120800;28;20502;-73
2023/05/12 04:04:34;;;;;;;8.88;3.33;;;10.20;99.90;;;9.39;100.00;101408.75;4120535;28;20037;-73
2023/05/12 04:06:35;;;;;;;11.30;2.97;;;10.20;99.90;;;9.30;100.00;101398.19;4120550;28;20035;-73
2023/05/12 04:08:36;;;;;;;7.80;3.55;;;10.10;99.90;;;9.19;100.00;101393.00;4119460;28;20038;-73
2023/05/12 04:10:39;;;;;;;8.93;3.35;;;10.10;99.90;;;9.22;100.00;101409.38;4135587;28;20034;-73
2023/05/12 04:12:40;;;;;;;11.10;3.05;;;10.00;99.90;;;9.14;100.00;101406.53;4120711;28;20053;-73
2023/05/12 04:14:40;;;;;;;7.72;2.97;;;9.90;99.90;;;9.03;100.00;101398.72;4120406;28;20022;-73
2023/05/12 04:16:41;;;;;;;8.57;2.78;;;9.90;99.90;;;8.99;100.00;101401.75;4120762;28;20070;-73
2023/05/12 04:18:42;;;;;;;10.75;3.05;;;9.80;99.90;;;8.92;100.00;101411.13;4120245;28;20031;-73
2023/05/12 04:20:44;;;;;;;10.32;3.53;;;9.70;99.90;;;8.84;100.00;101404.69;4120528;28;20126;-73
2023/05/12 04:22:46;;;;;;;11.70;3.40;;;9.60;99.90;;;8.80;100.00;101419.09;4135156;28;20081;-73
2023/05/12 04:24:47;;;;;;;13.75;3.60;;;9.50;99.90;;;8.76;100.00;101420.31;4119187;28;20038;-72
2023/05/12 04:26:48;;;;;;;11.98;4.57;;;9.50;99.90;;;8.66;100.00;101411.50;4120360;28;20058;-73
2023/05/12 04:28:48;;;;;;;12.40;3.55;;;9.40;99.90;;;8.65;100.00;101415.09;4135119;28;20069;-73
2023/05/12 04:30:49;;;;;;;11.27;3.35;;;9.40;99.90;;;8.63;100.00;101421.47;4119224;28;20541;-73
2023/05/12 04:32:50;;;;;;;9.90;3.90;;;9.30;99.90;;;8.54;100.00;101412.50;4135039;28;20466;-73
2023/05/12 04:34:54;;;;;;;12.38;3.97;;;9.30;99.90;;;8.55;100.00;101426.50;4119465;28;20050;-73
2023/05/12 04:36:55;;;;;;;10.60;4.22;;;9.30;99.90;;;8.52;100.00;101422.31;4120382;28;20026;-73
2023/05/12 04:38:55;;;;;;;10.35;4.57;;;9.20;99.90;;;8.51;100.00;101427.72;4119893;28;20022;-73
2023/05/12 04:40:58;;;;;;;13.57;3.83;;;9.20;99.90;;;8.55;100.00;101427.34;4120221;28;20030;-73
2023/05/12 04:42:59;;;;;;;12.20;4.53;;;9.20;99.90;;;8.54;100.00;101428.28;4120035;28;20035;-73
2023/05/12 04:45:00;;;;;;;11.85;3.92;;;9.20;99.90;;;8.53;100.00;101424.00;4119785;28;20045;-73
2023/05/12 04:47:01;;;;;;;10.77;3.78;;;9.20;99.90;;;8.61;100.00;101437.34;4118894;28;20023;-73
2023/05/12 04:49:02;;;;;;;11.82;3.47;;;9.30;99.90;;;8.65;100.00;101425.63;4119947;28;20027;-73
2023/05/12 04:51:03;;;;;;;10.35;3.70;;;9.30;99.90;;;8.78;100.00;101446.50;4130866;28;20030;-73
2023/05/12 04:53:03;;;;;;;11.82;4.68;;;9.40;99.90;;;8.81;100.00;101447.03;4118344;28;20027;-73
2023/05/12 04:55:06;;;;;;;5.20;3.90;;;9.50;99.90;;;8.82;100.00;101438.19;4118901;28;20018;-73
2023/05/12 04:57:07;;;;;;;8.48;3.33;;;9.50;99.90;;;8.78;100.00;101442.03;4119807;28;20038;-73
2023/05/12 04:59:08;;;;;;;11.95;3.85;;;9.50;99.90;;;8.74;100.00;101445.06;4134990;28;20027;-73
2023/05/12 05:01:11;;;;;;;9.55;3.72;;;9.40;99.90;;;8.72;100.00;101452.25;4103022;29;20028;-73
2023/05/12 05:03:12;;;;;;;8.80;3.38;;;9.40;99.90;;;8.61;100.00;101439.13;4119723;28;20023;-73
2023/05/12 05:05:12;;;;;;;8.38;2.70;;;9.40;99.90;;;8.62;100.00;101449.53;4134716;28;20042;-73
2023/05/12 05:07:13;;;;;;;6.85;2.70;;;9.30;99.90;;;8.69;100.00;101458.59;4118773;28;20022;-73
2023/05/12 05:09:14;;;;;;;8.43;2.83;;;9.40;99.90;;;8.80;100.00;101452.44;4119961;28;20030;-73
2023/05/12 05:11:15;;;;;;;6.78;2.92;;;9.50;99.90;;;8.89;100.00;101454.31;4134214;28;20441;-73
2023/05/12 05:13:16;;;;;;;11.02;3.15;;;9.60;99.90;;;8.94;100.00;101452.13;4118535;28;20098;-73
2023/05/12 05:15:18;;;;;;;7.80;3.15;;;9.60;99.90;;;9.07;100.00;101462.47;4119815;28;20034;-73
2023/05/12 05:17:19;;;;;;;7.60;3.55;;;9.70;99.90;;;9.14;100.00;101461.81;4118672;28;20042;-73
2023/05/12 05:19:19;;;;;;;8.20;3.90;;;9.80;99.90;;;9.28;100.00;101460.66;4118421;28;20022;-73
2023/05/12 05:21:20;;;;;;;6.07;2.63;;;9.90;99.90;;;9.36;100.00;101464.31;4119749;28;20034;-73
2023/05/12 05:23:21;;;;;;;7.57;3.28;;;10.00;99.90;;;9.42;100.00;101463.78;4102685;28;20030;-72
2023/05/12 05:25:22;;;;;;;11.63;4.45;;;10.10;99.90;;;9.42;100.00;101470.84;4119836;28;20035;-72
2023/05/12 05:27:23;;;;;;;11.07;4.70;;;10.10;99.90;;;9.49;100.00;101458.00;4118581;28;20026;-72
2023/05/12 05:29:25;;;;;;;15.15;6.43;;;10.10;99.90;;;9.50;100.00;101473.66;4119683;28;20055;-72
2023/05/12 05:31:27;;;;;;;17.13;6.47;;;10.20;99.90;;;9.45;100.00;101467.94;4119824;28;20034;-73
2023/05/12 05:33:28;;;;;;;15.18;6.30;;;10.20;99.90;;;9.43;100.00;101472.53;4134343;28;20054;-73
2023/05/12 05:35:30;;;;;;;11.32;6.35;;;10.10;99.90;;;9.49;100.00;101484.34;4134557;28;20018;-73
2023/05/12 05:37:31;;;;;;;15.38;7.18;;;10.20;99.90;;;9.51;100.00;101485.88;4134651;28;20062;-73
2023/05/12 05:39:32;;;;;;;13.77;6.60;;;10.10;99.90;;;9.52;100.00;101484.91;4118811;28;20031;-73
2023/05/12 05:41:32;;;;;;;18.02;7.85;;;10.20;99.90;;;9.62;100.00;101493.66;4119901;28;20027;-73
2023/05/12 05:43:33;;;;;;;14.02;6.53;;;10.20;99.90;;;9.69;100.00;101483.44;4119713;28;20031;-72
2023/05/12 05:45:34;;;;;;;14.43;7.35;;;10.40;99.90;;;9.84;100.00;101487.41;4119358;28;20070;-73
2023/05/12 05:47:36;;;;;;;13.30;5.43;;;10.50;99.90;;;9.95;100.00;101492.56;4119337;28;20030;-73
2023/05/12 05:49:37;;;;;;;18.33;7.18;;;10.60;99.90;;;9.99;100.00;101488.69;4118381;28;20026;-72
2023/05/12 05:51:38;;;;;;;13.07;6.25;;;10.70;99.90;;;10.10;100.00;101485.94;4120555;28;20418;-72
2023/05/12 05:53:38;;;;;;;15.63;7.20;;;10.80;99.90;;;10.14;100.00;101497.09;4121372;28;20035;-72
2023/05/12 05:55:39;;;;;;;16.17;7.43;;;10.80;99.90;;;10.19;100.00;101489.59;4121691;28;20031;-72
2023/05/12 05:57:41;;;;;;;16.50;6.57;;;10.90;99.90;;;10.24;100.00;101495.34;4122749;28;20045;-71
2023/05/12 05:59:42;;;;;;;13.75;5.93;;;11.00;99.90;;;10.29;100.00;101487.84;4122348;28;20027;-71
2023/05/12 06:01:44;;;;;;;13.50;5.85;;;11.00;99.90;;;10.36;100.00;101487.13;4122505;28;20173;-71
2023/05/12 06:03:45;;;;;;;13.43;7.00;;;11.10;99.90;;;10.40;100.00;101493.81;4137361;28;20109;-71
2023/05/12 06:05:46;;;;;;;19.15;6.82;;;11.10;99.90;;;10.48;100.00;101495.78;4137403;28;20445;-71
2023/05/12 06:07:47;;;;;;;11.77;6.65;;;11.20;99.90;;;10.45;100.00;101496.88;4137324;28;20027;-71
2023/05/12 06:09:47;;;;;;;16.23;7.20;;;11.30;99.90;;;10.54;100.00;101498.69;4105083;29;20074;-71
2023/05/12 06:11:49;;;;;;;15.18;7.32;;;11.30;99.90;;;10.60;100.00;101492.06;4122490;28;20023;-71
2023/05/12 06:13:49;;;;;;;12.05;5.97;;;11.30;99.90;;;10.70;100.00;101498.16;4137366;28;20042;-71
2023/05/12 06:15:50;;;;;;;12.45;6.22;;;11.40;99.90;;;10.78;100.00;101508.84;4121341;28;20019;-70
2023/05/12 06:17:51;;;;;;;13.90;5.85;;;11.50;99.90;;;10.79;100.00;101515.81;4136744;28;20042;-70
2023/05/12 06:19:52;;;;;;;13.32;6.45;;;11.50;99.90;;;10.83;100.00;101501.38;4122397;28;20479;-71
2023/05/12 06:21:53;;;;;;;15.68;6.43;;;11.60;99.90;;;10.85;100.00;101495.94;4122407;28;20031;-71
2023/05/12 06:23:55;;;;;;;16.63;6.78;;;11.60;99.90;;;10.78;100.00;101506.22;4122342;28;20022;-71
2023/05/12 06:25:56;;;;;;;10.52;5.60;;;11.60;99.90;;;10.78;100.00;101514.13;4137037;28;20037;-71
2023/05/12 06:27:56;;;;;;;20.05;7.80;;;11.60;99.90;;;10.83;100.00;101503.16;4136907;28;20027;-71
2023/05/12 06:29:57;;;;;;;14.05;7.00;;;11.60;99.90;;;11.00;100.00;101518.28;4122303;28;20034;-71
2023/05/12 06:31:58;;;;;;;15.98;6.97;;;11.70;99.90;;;10.98;100.00;101514.97;4122126;28;20030;-73
2023/05/12 06:33:59;;;;;;;9.90;6.28;;;11.80;99.90;;;11.06;100.00;101509.81;4136705;28;20086;-72
2023/05/12 06:36:00;;;;;;;14.05;6.78;;;11.80;99.90;;;11.32;100.00;101518.00;4119345;28;20127;-73
2023/05/12 06:38:01;;;;;;;10.10;5.32;;;11.90;99.90;;;11.50;100.00;101518.91;4125047;28;20035;-73
2023/05/12 06:40:02;;;;;;;15.10;6.38;;;12.10;99.90;;;11.68;100.00;101520.66;4121110;28;20026;-73
2023/05/12 06:42:03;;;;;;;10.57;5.90;;;12.30;99.90;;;11.65;100.00;101528.06;4121425;28;20023;-73
2023/05/12 06:44:05;;;;;;;12.35;6.45;;;12.40;99.90;;;11.66;100.00;101532.38;4104055;29;20490;-74
2023/05/12 06:46:07;;;;;;;13.00;5.10;;;12.40;99.90;;;11.76;100.00;101533.22;4121379;28;20220;-73
2023/05/12 06:48:08;;;;;;;17.13;6.25;;;12.50;99.90;;;11.86;100.00;101535.78;4121302;28;20023;-72
2023/05/12 06:50:09;;;;;;;14.20;6.22;;;12.50;99.90;;;11.76;100.00;101527.09;4133867;28;20041;-72
2023/05/12 06:52:10;;;;;;;9.10;4.88;;;12.50;99.90;;;11.85;100.00;101537.63;4103342;28;20027;-72
2023/05/12 06:54:11;;;;;;;12.60;5.63;;;12.50;99.90;;;11.88;100.00;101536.50;4120566;28;20421;-72
2023/05/12 06:56:15;;;;;;;14.35;5.55;;;12.50;99.90;;;11.83;100.00;101542.22;4120846;28;20054;-72
2023/05/12 06:58:17;;;;;;;14.60;5.15;;;12.60;99.90;;;11.90;100.00;101535.38;4135693;28;20022;-72
2023/05/12 07:00:19;;;;;;;10.88;4.85;;;12.60;99.90;;;12.05;100.00;101538.38;4135500;28;20038;-71
2023/05/12 07:02:20;;;;;;;12.55;5.07;;;12.70;99.90;;;11.99;100.00;101539.78;4118763;28;20472;-73
2023/05/12 07:04:21;;;;;;;13.63;5.15;;;12.80;99.90;;;12.24;100.00;101548.03;4119531;28;20066;-73
2023/05/12 07:06:22;;;;;;;11.95;5.38;;;12.90;99.90;;;12.11;100.00;101546.56;4121129;28;20018;-73
2023/05/12 07:08:23;;;;;;;12.70;6.80;;;12.80;99.90;;;11.93;100.00;101550.13;4135618;28;20101;-73
2023/05/12 07:10:24;;;;;;;12.93;4.75;;;12.70;99.90;;;11.78;100.00;101548.91;4118576;28;20051;-73
2023/05/12 07:12:25;;;;;;;12.73;5.55;;;12.60;99.90;;;11.70;100.00;101547.00;4113098;28;20088;-73
2023/05/12 07:14:26;;;;;;;12.13;5.60;;;12.60;99.90;;;11.82;100.00;101553.78;4108487;28;20031;-72
2023/05/12 07:16:26;;;;;;;15.30;5.72;;;12.60;99.90;;;12.00;100.00;101551.22;4118325;28;20027;-72
2023/05/12 07:18:27;;;;;;;10.93;3.80;;;12.70;99.90;;;12.20;100.00;101548.34;4119209;28;20483;-72
2023/05/12 07:20:28;;;;;;;12.68;4.10;;;12.80;99.90;;;12.37;100.00;101553.81;4119994;28;20050;-72
2023/05/12 07:22:31;;;;;;;13.13;4.10;;;13.00;99.90;;;12.51;100.00;101561.25;4120899;28;20030;-72
2023/05/12 07:24:31;;;;;;;12.77;4.32;;;13.10;99.90;;;12.59;100.00;101551.59;4121053;28;20438;-72
2023/05/12 07:26:32;;;;;;;9.18;4.35;;;13.20;99.90;;;12.88;100.00;101558.47;4136260;28;20030;-72
2023/05/12 07:28:35;;;;;;;10.15;4.00;;;13.40;99.90;;;13.06;100.00;101544.25;4120131;28;20035;-72
2023/05/12 07:30:37;;;;;;;12.45;4.43;;;13.70;99.90;;;13.20;100.00;101543.75;4136384;28;20034;-72
2023/05/12 07:32:38;;;;;;;9.27;3.55;;;13.80;99.90;;;13.41;100.00;101550.53;4135765;28;20027;-72
2023/05/12 07:34:39;;;;;;;9.70;3.35;;;14.00;99.90;;;13.71;100.00;101552.72;4136048;28;20030;-71
2023/05/12 07:36:40;;;;;;;13.00;4.25;;;14.20;99.90;;;13.78;100.00;101551.94;4121086;28;20030;-72
2023/05/12 07:38:41;;;;;;;11.95;4.38;;;14.40;99.90;;;13.74;100.00;101545.28;4121072;28;20019;-71
2023/05/12 07:40:41;;;;;;;13.57;4.97;;;14.40;99.90;;;13.78;100.00;101541.34;4120900;28;20077;-72
2023/05/12 07:42:42;;;;;;;9.75;3.42;;;14.40;99.90;;;14.09;100.00;101543.47;4135881;28;20026;-72
2023/05/12 07:44:43;;;;;;;10.10;3.83;;;14.50;99.90;;;14.24;100.00;101541.88;4135838;28;20051;-72
2023/05/12 07:46:44;;;;;;;10.07;4.28;;;14.60;99.90;;;14.33;100.00;101544.44;4121237;28;20133;-72
2023/05/12 07:48:45;;;;;;;9.27;3.53;;;14.80;99.90;;;14.74;100.00;101541.88;4135568;28;20034;-72
2023/05/12 07:50:46;;;;;;;8.23;4.45;;;15.00;99.90;;;14.69;100.00;101539.75;4135929;28;20037;-71
2023/05/12 07:52:49;;;;;;;14.48;4.35;;;15.00;99.90;;;14.80;100.00;101535.91;4119929;28;20031;-72
2023/05/12 07:54:50;;;;;;;12.83;4.40;;;15.10;99.90;;;14.95;100.00;101547.56;4120861;28;20029;-72
2023/05/12 07:56:51;;;;;;;9.85;4.28;;;15.20;99.90;;;14.77;100.00;101542.41;4135500;28;20808;-72
2023/05/12 07:58:52;;;;;;;14.52;4.18;;;15.30;99.90;;;14.49;100.00;101538.34;4119717;28;20085;-72
2023/05/12 08:00:53;;;;;;;7.68;3.38;;;15.20;99.90;;;14.44;100.00;101540.66;4135944;28;20026;-72
2023/05/12 08:02:55;;;;;;;10.70;3.85;;;15.10;99.90;;;14.33;100.00;101541.81;4119431;28;20491;-72
2023/05/12 08:04:55;;;;;;;8.23;3.17;;;15.00;99.90;;;14.28;100.00;101543.22;4119412;28;20031;-72
2023/05/12 08:06:56;;;;;;;8.75;3.05;;;14.90;99.90;;;14.12;100.00;101544.00;4135384;28;20057;-72
2023/05/12 08:08:57;;;;;;;9.32;3.15;;;14.80;99.90;;;14.04;100.00;101549.25;4110269;28;20023;-72
2023/05/12 08:10:58;;;;;;;8.30;2.95;;;14.80;99.90;;;13.97;100.00;101544.75;4120654;28;20035;-72
2023/05/12 08:12:59;;;;;;;7.70;2.90;;;14.70;99.90;;;13.96;100.00;101541.25;4120539;28;20034;-72
2023/05/12 08:15:00;;;;;;;9.43;3.95;;;14.60;99.90;;;13.80;100.00;101549.13;4118658;28;20034;-72
2023/05/12 08:17:01;;;;;;;14.38;3.45;;;14.60;99.90;;;13.78;100.00;101554.59;4120467;28;20030;-72
2023/05/12 08:19:02;;;;;;;12.45;3.10;;;14.60;99.90;;;13.87;100.00;101544.84;4103012;28;20078;-72
2023/05/12 08:21:03;;;;;;;8.30;3.13;;;14.60;99.90;;;13.96;100.00;101546.56;4120492;28;20019;-72
2023/05/12 08:23:04;;;;;;;7.63;2.90;;;14.60;99.90;;;14.06;100.00;101549.94;4120379;28;20035;-72